New Philadelphia, Pennsylvania
Current Conditions -  °F | °C
As of 11:15 PM on Sunday 23 Nov 2014 (Local Time) from KHZL Reporting Station
Haze Haze  
Wind Chill: 39°   Ceiling: 1500
Heat Index: 45°   Visibility: 5mi
Dew Point: 39°   Wind: 12mph
Humidity: 81%   Direction: 130°SE
Pressure: 29.93"   Gusts: 18mph
Location:  40.72°N, 76.12°W
Report Text: KHZL 240415Z AUTO 13010G16KT 5SM HZ BKN015 OVC021 07/04 A2993 RMK AO2
Loading
Personal Weather Stations






























Interactive Weather Map New forecast layout! Learn more

10-Day Weather Forecast

Advertisements
Track Severe Weather on mobile